createdAt,value
2017-09-28T00:00:31.791Z,0
2017-09-28T00:01:33.675Z,0
2017-09-28T00:02:35.563Z,0
2017-09-28T00:03:37.449Z,0
2017-09-28T00:04:51.610Z,0
2017-09-28T00:05:53.533Z,0
2017-09-28T00:06:55.393Z,0
2017-09-28T00:07:57.280Z,0
2017-09-28T00:08:59.103Z,0
2017-09-28T00:10:00.921Z,0
2017-09-28T00:11:02.818Z,0
2017-09-28T00:12:04.708Z,0
2017-09-28T00:13:06.594Z,0
2017-09-28T00:14:20.753Z,0
2017-09-28T00:15:22.651Z,0
2017-09-28T00:16:24.536Z,0
2017-09-28T00:17:26.422Z,0
2017-09-28T00:18:28.255Z,0
2017-09-28T00:19:30.086Z,0
2017-09-28T00:20:31.973Z,0
2017-09-28T00:21:33.861Z,0
2017-09-28T00:22:35.749Z,0
2017-09-28T00:23:49.960Z,0
2017-09-28T00:24:51.845Z,0
2017-09-28T00:25:53.734Z,0
2017-09-28T00:26:55.622Z,0
2017-09-28T00:27:57.454Z,0
2017-09-28T00:28:59.284Z,0
2017-09-28T00:30:01.170Z,0
2017-09-28T00:31:03.055Z,0
2017-09-28T00:32:04.941Z,0
2017-09-28T00:33:19.102Z,0
2017-09-28T00:34:20.986Z,0
2017-09-28T00:35:22.883Z,0
2017-09-28T00:36:24.768Z,0
2017-09-28T00:37:26.589Z,0
2017-09-28T00:38:28.412Z,0
2017-09-28T00:39:30.346Z,0
2017-09-28T00:40:32.240Z,0
2017-09-28T00:41:34.128Z,0
2017-09-28T00:42:48.286Z,0
2017-09-28T00:43:50.170Z,0
2017-09-28T00:44:52.059Z,0
2017-09-28T00:45:53.946Z,0
2017-09-28T00:46:55.769Z,0
2017-09-28T00:47:57.590Z,0
2017-09-28T00:48:59.476Z,0
2017-09-28T00:50:01.362Z,0
2017-09-28T00:51:03.250Z,0
2017-09-28T00:52:17.413Z,0
2017-09-28T00:53:19.301Z,0
2017-09-28T00:54:21.184Z,0
2017-09-28T00:55:23.073Z,0
2017-09-28T00:56:24.895Z,0
2017-09-28T00:57:26.716Z,0
2017-09-28T00:58:28.604Z,0
2017-09-28T00:59:30.487Z,0
2017-09-28T01:00:32.375Z,0
2017-09-28T01:01:46.540Z,0
2017-09-28T01:02:48.424Z,0
2017-09-28T01:03:50.320Z,0
2017-09-28T01:04:52.210Z,0
2017-09-28T01:05:54.032Z,0
2017-09-28T01:06:55.854Z,0
2017-09-28T01:07:57.751Z,0
2017-09-28T01:08:59.638Z,0
2017-09-28T01:10:01.530Z,0
2017-09-28T01:11:15.687Z,0
2017-09-28T01:12:17.584Z,0
2017-09-28T01:13:19.469Z,0
2017-09-28T01:14:21.357Z,0
2017-09-28T01:15:23.178Z,0
2017-09-28T01:16:24.997Z,0
2017-09-28T01:17:26.884Z,0
2017-09-28T01:18:28.769Z,0
2017-09-28T01:19:30.652Z,0
2017-09-28T01:20:44.811Z,0
2017-09-28T01:21:46.708Z,0
2017-09-28T01:22:48.605Z,0
2017-09-28T01:23:50.496Z,0
2017-09-28T01:24:52.317Z,0
2017-09-28T01:25:54.139Z,0
2017-09-28T01:26:56.022Z,0
2017-09-28T01:27:57.917Z,0
2017-09-28T01:28:59.804Z,0
2017-09-28T01:30:13.963Z,0
2017-09-28T01:31:15.848Z,0
2017-09-28T01:32:17.737Z,0
2017-09-28T01:33:19.625Z,0
2017-09-28T01:34:21.446Z,0
2017-09-28T01:35:23.266Z,0
2017-09-28T01:36:25.153Z,0
2017-09-28T01:37:27.041Z,0
2017-09-28T01:38:28.927Z,0
2017-09-28T01:39:43.086Z,0
2017-09-28T01:40:44.981Z,0
2017-09-28T01:41:46.878Z,0
2017-09-28T01:42:48.772Z,0
2017-09-28T01:43:50.593Z,0
2017-09-28T01:44:52.428Z,0
2017-09-28T01:45:54.314Z,0
2017-09-28T01:46:56.202Z,0
2017-09-28T01:47:58.091Z,0
2017-09-28T01:49:17.281Z,0
2017-09-28T01:50:19.167Z,0
2017-09-28T01:51:21.049Z,0
2017-09-28T01:52:22.943Z,0
2017-09-28T01:53:24.764Z,0
2017-09-28T01:54:26.594Z,0
2017-09-28T01:55:28.480Z,0
2017-09-28T01:56:30.364Z,0
2017-09-28T01:57:32.249Z,0
2017-09-28T01:58:46.406Z,0
2017-09-28T01:59:48.293Z,0
2017-09-28T02:00:50.178Z,0
2017-09-28T02:01:52.074Z,0
2017-09-28T02:02:53.893Z,0
2017-09-28T02:03:55.726Z,0
2017-09-28T02:04:57.624Z,0
2017-09-28T02:05:59.508Z,0
2017-09-28T02:07:01.391Z,0
2017-09-28T02:08:15.609Z,0
2017-09-28T02:09:17.496Z,0
2017-09-28T02:10:19.390Z,0
2017-09-28T02:11:21.273Z,0
2017-09-28T02:12:23.102Z,0
2017-09-28T02:13:24.931Z,0
2017-09-28T02:14:26.816Z,0
2017-09-28T02:15:28.699Z,0
2017-09-28T02:16:30.584Z,0
2017-09-28T02:17:44.788Z,0
2017-09-28T02:18:46.671Z,0
2017-09-28T02:19:48.559Z,0
2017-09-28T02:20:50.441Z,0
2017-09-28T02:21:52.273Z,0
2017-09-28T02:22:54.098Z,0
2017-09-28T02:23:55.985Z,0
2017-09-28T02:24:57.859Z,0
2017-09-28T02:25:59.744Z,0
2017-09-28T02:27:13.950Z,0
2017-09-28T02:28:15.844Z,0
2017-09-28T02:29:17.738Z,0
2017-09-28T02:30:19.632Z,0
2017-09-28T02:31:21.450Z,0
2017-09-28T02:32:23.269Z,0
2017-09-28T02:33:25.154Z,0
2017-09-28T02:34:27.037Z,0
2017-09-28T02:35:28.921Z,0
2017-09-28T02:36:43.076Z,0
2017-09-28T02:37:44.957Z,0
2017-09-28T02:38:46.842Z,0
2017-09-28T02:39:48.727Z,0
2017-09-28T02:40:50.548Z,0
2017-09-28T02:41:52.362Z,0
2017-09-28T02:42:54.246Z,0
2017-09-28T02:43:56.159Z,0
2017-09-28T02:44:58.040Z,0
2017-09-28T02:46:12.195Z,0
2017-09-28T02:47:14.089Z,0
2017-09-28T02:48:15.982Z,0
2017-09-28T02:49:17.872Z,0
2017-09-28T02:50:19.684Z,0
2017-09-28T02:51:21.516Z,0
2017-09-28T02:52:23.400Z,0
2017-09-28T02:53:25.283Z,0
2017-09-28T02:54:27.178Z,0
2017-09-28T02:55:41.335Z,0
2017-09-28T02:56:43.217Z,0
2017-09-28T02:57:45.111Z,0
2017-09-28T02:58:46.999Z,0
2017-09-28T02:59:48.812Z,0
2017-09-28T03:00:50.629Z,0
2017-09-28T03:01:52.515Z,0
2017-09-28T03:02:54.397Z,0
2017-09-28T03:03:56.282Z,0
2017-09-28T03:05:10.435Z,0
2017-09-28T03:06:12.318Z,0
2017-09-28T03:07:14.213Z,0
2017-09-28T03:08:16.093Z,0
2017-09-28T03:09:17.913Z,0
2017-09-28T03:10:19.732Z,0
2017-09-28T03:11:21.622Z,0
2017-09-28T03:12:23.506Z,0
2017-09-28T03:13:25.391Z,0
2017-09-28T03:14:39.546Z,0
2017-09-28T03:15:41.428Z,0
2017-09-28T03:16:43.313Z,0
2017-09-28T03:17:45.194Z,0
2017-09-28T03:18:47.012Z,0
2017-09-28T03:19:48.842Z,0
2017-09-28T03:20:50.728Z,0
2017-09-28T03:21:52.609Z,0
2017-09-28T03:22:54.494Z,0
2017-09-28T03:24:08.697Z,0
2017-09-28T03:25:10.580Z,0
2017-09-28T03:26:12.473Z,0
2017-09-28T03:27:14.364Z,0
2017-09-28T03:28:16.174Z,0
2017-09-28T03:29:18.005Z,0
2017-09-28T03:30:19.888Z,0
2017-09-28T03:31:21.771Z,0
2017-09-28T03:32:23.657Z,0
2017-09-28T03:33:37.860Z,0
2017-09-28T03:34:39.741Z,0
2017-09-28T03:35:41.635Z,0
2017-09-28T03:36:43.517Z,0
2017-09-28T03:37:45.337Z,0
2017-09-28T03:38:47.165Z,0
2017-09-28T03:39:49.059Z,0
2017-09-28T03:40:50.952Z,0
2017-09-28T03:41:52.836Z,0
2017-09-28T03:43:07.041Z,0
2017-09-28T03:44:08.923Z,0
2017-09-28T03:45:10.809Z,0
2017-09-28T03:46:12.690Z,0
2017-09-28T03:47:14.508Z,0
2017-09-28T03:48:16.335Z,0
2017-09-28T03:49:18.224Z,0
2017-09-28T03:50:20.105Z,0
2017-09-28T03:51:21.990Z,0
2017-09-28T03:52:36.148Z,0
2017-09-28T03:53:38.038Z,0
2017-09-28T03:54:39.931Z,0
2017-09-28T03:55:41.813Z,0
2017-09-28T03:56:43.629Z,0
2017-09-28T03:57:45.457Z,0
2017-09-28T03:58:47.343Z,0
2017-09-28T03:59:49.222Z,0
2017-09-28T04:00:51.108Z,0
2017-09-28T04:02:05.270Z,0
2017-09-28T04:03:07.146Z,0
2017-09-28T04:04:09.032Z,0
2017-09-28T04:05:10.915Z,0
2017-09-28T04:06:12.743Z,0
2017-09-28T04:07:14.558Z,0
2017-09-28T04:08:16.452Z,0
2017-09-28T04:09:18.333Z,0
2017-09-28T04:10:20.227Z,0
2017-09-28T04:11:34.385Z,0
2017-09-28T04:12:36.264Z,0
2017-09-28T04:13:38.152Z,0
2017-09-28T04:14:40.032Z,0
2017-09-28T04:15:41.860Z,0
2017-09-28T04:16:43.682Z,0
2017-09-28T04:17:45.567Z,0
2017-09-28T04:18:47.451Z,0
2017-09-28T04:19:49.336Z,0
2017-09-28T04:21:03.491Z,0
2017-09-28T04:22:05.375Z,0
2017-09-28T04:23:07.261Z,0
2017-09-28T04:24:09.141Z,0
2017-09-28T04:25:10.958Z,0
2017-09-28T04:26:12.775Z,4
2017-09-28T04:27:14.659Z,4
2017-09-28T04:28:16.553Z,0
2017-09-28T04:29:18.439Z,4
2017-09-28T04:30:32.591Z,0
2017-09-28T04:31:34.473Z,4
2017-09-28T04:32:36.383Z,4
2017-09-28T04:33:38.267Z,8
2017-09-28T04:34:40.100Z,8
2017-09-28T04:35:41.919Z,8
2017-09-28T04:36:43.803Z,8
2017-09-28T04:37:45.698Z,12
2017-09-28T04:38:47.584Z,16
2017-09-28T04:40:01.789Z,16
2017-09-28T04:41:03.672Z,20
2017-09-28T04:42:05.558Z,28
2017-09-28T04:43:07.440Z,32
2017-09-28T04:44:09.269Z,36
2017-09-28T04:45:11.090Z,44
2017-09-28T04:46:12.975Z,48
2017-09-28T04:47:14.859Z,56
2017-09-28T04:48:16.749Z,64
2017-09-28T04:49:30.903Z,76
2017-09-28T04:50:32.786Z,88
2017-09-28T04:51:34.680Z,100
2017-09-28T04:52:36.562Z,116
2017-09-28T04:53:38.395Z,128
2017-09-28T04:54:40.216Z,144
2017-09-28T04:55:42.102Z,160
2017-09-28T04:56:44.000Z,180
2017-09-28T04:57:45.880Z,200
2017-09-28T04:59:00.086Z,228
2017-09-28T05:00:01.971Z,252
2017-09-28T05:01:03.857Z,276
2017-09-28T05:02:05.740Z,304
2017-09-28T05:03:07.561Z,332
2017-09-28T05:04:09.381Z,364
2017-09-28T05:05:11.273Z,400
2017-09-28T05:06:13.158Z,436
2017-09-28T05:07:15.044Z,476
2017-09-28T05:08:29.203Z,520
2017-09-28T05:09:31.086Z,564
2017-09-28T05:10:32.976Z,608
2017-09-28T05:11:34.858Z,648
2017-09-28T05:12:36.680Z,692
2017-09-28T05:13:38.502Z,740
2017-09-28T05:14:40.391Z,784
2017-09-28T05:15:42.276Z,832
2017-09-28T05:16:44.163Z,880
2017-09-28T05:17:58.324Z,940
2017-09-28T05:19:00.205Z,996
2017-09-28T05:20:02.102Z,1052
2017-09-28T05:21:03.990Z,1112
2017-09-28T05:22:05.833Z,1168
2017-09-28T05:23:07.656Z,1216
2017-09-28T05:24:09.546Z,1264
2017-09-28T05:25:11.432Z,1312
2017-09-28T05:26:13.324Z,1376
2017-09-28T05:27:27.524Z,1452
2017-09-28T05:28:29.413Z,1512
2017-09-28T05:29:31.312Z,1596
2017-09-28T05:30:33.200Z,1672
2017-09-28T05:31:35.026Z,1756
2017-09-28T05:32:36.849Z,1832
2017-09-28T05:33:38.744Z,1912
2017-09-28T05:34:40.632Z,2004
2017-09-28T05:35:42.533Z,2088
2017-09-28T05:36:56.695Z,2180
2017-09-28T05:37:58.581Z,2228
2017-09-28T05:39:00.479Z,2248
2017-09-28T05:40:02.391Z,2276
2017-09-28T05:41:04.222Z,2296
2017-09-28T05:42:06.058Z,2344
2017-09-28T05:43:07.949Z,2404
2017-09-28T05:44:09.836Z,2480
2017-09-28T05:45:11.723Z,2540
2017-09-28T05:46:25.893Z,2612
2017-09-28T05:47:27.782Z,2636
2017-09-28T05:48:29.681Z,2616
2017-09-28T05:49:31.579Z,2620
2017-09-28T05:50:33.404Z,2644
2017-09-28T05:51:35.226Z,2708
2017-09-28T05:52:37.127Z,2760
2017-09-28T05:53:39.011Z,2796
2017-09-28T05:54:40.911Z,2832
2017-09-28T05:55:55.070Z,2888
2017-09-28T05:56:56.957Z,2956
2017-09-28T05:57:58.857Z,3024
2017-09-28T05:59:00.744Z,3072
2017-09-28T06:00:02.603Z,3088
2017-09-28T06:01:04.437Z,3108
2017-09-28T06:02:06.326Z,3128
2017-09-28T06:03:08.217Z,3160
2017-09-28T06:04:10.185Z,3176
2017-09-28T06:05:24.382Z,3224
2017-09-28T06:06:26.274Z,3288
2017-09-28T06:07:28.158Z,3384
2017-09-28T06:08:30.045Z,3404
2017-09-28T06:09:31.866Z,3408
2017-09-28T06:10:33.691Z,3400
2017-09-28T06:11:35.580Z,3396
2017-09-28T06:12:37.467Z,3424
2017-09-28T06:13:39.357Z,3460
2017-09-28T06:14:53.521Z,3548
2017-09-28T06:15:55.406Z,3628
2017-09-28T06:16:57.296Z,3720
2017-09-28T06:17:59.183Z,3784
2017-09-28T06:19:01.005Z,3888
2017-09-28T06:20:02.833Z,4044
2017-09-28T06:21:04.758Z,4124
2017-09-28T06:22:06.645Z,4188
2017-09-28T06:23:08.545Z,4212
2017-09-28T06:24:22.705Z,4168
2017-09-28T06:25:24.603Z,4156
2017-09-28T06:26:26.504Z,4152
2017-09-28T06:27:28.395Z,4160
2017-09-28T06:28:30.220Z,4108
2017-09-28T06:29:32.062Z,4088
2017-09-28T06:30:33.950Z,4040
2017-09-28T06:31:35.839Z,3988
2017-09-28T06:32:37.744Z,3936
2017-09-28T06:33:51.902Z,3884
2017-09-28T06:34:53.790Z,3928
2017-09-28T06:35:55.680Z,4008
2017-09-28T06:36:57.567Z,4132
2017-09-28T06:37:59.403Z,4240
2017-09-28T06:39:01.238Z,4388
2017-09-28T06:40:03.133Z,4564
2017-09-28T06:41:05.014Z,4652
2017-09-28T06:42:06.917Z,4764
2017-09-28T06:43:21.079Z,4796
2017-09-28T06:44:22.968Z,4832
2017-09-28T06:45:24.856Z,4832
2017-09-28T06:46:26.743Z,4852
2017-09-28T06:47:28.582Z,4876
2017-09-28T06:48:30.419Z,4980
2017-09-28T06:49:32.311Z,4980
2017-09-28T06:50:34.198Z,4896
2017-09-28T06:51:36.113Z,4844
2017-09-28T06:52:50.273Z,4768
2017-09-28T06:53:52.161Z,4828
2017-09-28T06:54:54.098Z,4888
2017-09-28T06:55:55.987Z,4944
2017-09-28T06:56:57.818Z,4956
2017-09-28T06:57:59.644Z,5000
2017-09-28T06:59:01.534Z,5088
2017-09-28T07:00:03.423Z,5100
2017-09-28T07:01:05.312Z,5180
2017-09-28T07:02:19.475Z,5200
2017-09-28T07:03:21.363Z,5200
2017-09-28T07:04:23.264Z,5236
2017-09-28T07:05:25.161Z,5272
2017-09-28T07:06:26.983Z,5288
2017-09-28T07:07:28.818Z,5352
2017-09-28T07:08:30.709Z,5344
2017-09-28T07:09:32.595Z,5332
2017-09-28T07:10:34.489Z,5228
2017-09-28T07:11:48.650Z,5272
2017-09-28T07:12:50.536Z,5288
2017-09-28T07:13:52.429Z,5244
2017-09-28T07:14:54.315Z,5260
2017-09-28T07:15:56.139Z,5292
2017-09-28T07:16:57.970Z,5436
2017-09-28T07:17:59.856Z,5564
2017-09-28T07:19:01.746Z,5672
2017-09-28T07:20:03.639Z,5800
2017-09-28T07:21:17.802Z,5916
2017-09-28T07:22:19.691Z,5992
2017-09-28T07:23:21.581Z,6068
2017-09-28T07:24:23.471Z,6116
2017-09-28T07:25:25.298Z,6192
2017-09-28T07:26:27.135Z,6284
2017-09-28T07:27:29.026Z,6352
2017-09-28T07:28:30.926Z,6448
2017-09-28T07:29:32.830Z,6604
2017-09-28T07:30:47.044Z,6744
2017-09-28T07:31:48.934Z,6900
2017-09-28T07:32:50.824Z,7008
2017-09-28T07:33:52.727Z,6996
2017-09-28T07:34:54.550Z,7044
2017-09-28T07:35:56.377Z,6972
2017-09-28T07:36:58.269Z,6904
2017-09-28T07:38:00.159Z,6760
2017-09-28T07:39:02.053Z,6668
2017-09-28T07:40:16.216Z,6572
2017-09-28T07:41:18.132Z,6472
2017-09-28T07:42:20.066Z,6248
2017-09-28T07:43:21.956Z,6080
2017-09-28T07:44:23.835Z,5860
2017-09-28T07:45:25.727Z,5768
2017-09-28T07:46:27.638Z,5544
2017-09-28T07:47:29.528Z,5420
2017-09-28T07:48:31.433Z,5324
2017-09-28T07:49:45.593Z,5256
2017-09-28T07:50:47.483Z,5260
2017-09-28T07:51:49.373Z,5296
2017-09-28T07:52:51.259Z,5412
2017-09-28T07:53:53.098Z,5464
2017-09-28T07:54:54.924Z,5484
2017-09-28T07:55:56.816Z,5568
2017-09-28T07:56:58.705Z,5784
2017-09-28T07:58:00.597Z,5796
2017-09-28T07:59:14.761Z,5804
2017-09-28T08:00:16.694Z,5848
2017-09-28T08:01:18.585Z,5944
2017-09-28T08:02:20.485Z,5952
2017-09-28T08:03:22.312Z,6052
2017-09-28T08:04:24.138Z,5976
2017-09-28T08:05:26.056Z,6080
2017-09-28T08:06:27.947Z,6084
2017-09-28T08:07:29.840Z,5956
2017-09-28T08:08:44.053Z,5916
2017-09-28T08:09:45.944Z,5792
2017-09-28T08:10:47.835Z,5760
2017-09-28T08:11:49.724Z,6092
2017-09-28T08:12:51.550Z,6248
2017-09-28T08:13:53.375Z,6400
2017-09-28T08:14:55.267Z,6116
2017-09-28T08:15:57.157Z,6616
2017-09-28T08:16:59.048Z,6384
2017-09-28T08:18:13.221Z,6668
2017-09-28T08:19:15.111Z,6268
2017-09-28T08:20:17.012Z,6388
2017-09-28T08:21:18.904Z,6300
2017-09-28T08:22:20.731Z,6388
2017-09-28T08:23:22.556Z,6380
2017-09-28T08:24:24.453Z,6456
2017-09-28T08:25:26.343Z,6460
2017-09-28T08:26:28.239Z,6332
2017-09-28T08:27:42.402Z,6136
2017-09-28T08:28:44.292Z,6320
2017-09-28T08:29:46.182Z,6176
2017-09-28T08:30:48.081Z,6096
2017-09-28T08:31:49.896Z,6092
2017-09-28T08:32:51.737Z,5972
2017-09-28T08:33:53.631Z,5912
2017-09-28T08:34:55.518Z,6052
2017-09-28T08:35:57.412Z,6120
2017-09-28T08:37:11.600Z,6228
2017-09-28T08:38:13.514Z,6336
2017-09-28T08:39:15.451Z,6464
2017-09-28T08:40:17.394Z,6452
2017-09-28T08:41:19.256Z,6436
2017-09-28T08:42:21.091Z,6328
2017-09-28T08:43:23.001Z,6316
2017-09-28T08:44:24.889Z,6232
2017-09-28T08:45:26.781Z,6180
2017-09-28T08:46:41.006Z,6256
2017-09-28T08:47:42.898Z,6384
2017-09-28T08:48:44.788Z,6352
2017-09-28T08:49:46.691Z,6300
2017-09-28T08:50:48.515Z,6244
2017-09-28T08:51:50.343Z,6232
2017-09-28T08:52:52.237Z,6276
2017-09-28T08:53:54.127Z,6328
2017-09-28T08:54:56.022Z,6444
2017-09-28T08:56:10.188Z,6672
2017-09-28T08:57:12.080Z,6876
2017-09-28T08:58:13.969Z,7052
2017-09-28T08:59:15.857Z,7232
2017-09-28T09:00:17.694Z,7356
2017-09-28T09:01:19.520Z,7432
2017-09-28T09:02:21.412Z,7532
2017-09-28T09:03:23.303Z,7680
2017-09-28T09:04:25.194Z,7912
2017-09-28T09:05:39.369Z,8120
2017-09-28T09:06:41.260Z,8324
2017-09-28T09:07:43.152Z,8616
2017-09-28T09:08:45.045Z,8780
2017-09-28T09:09:46.872Z,8904
2017-09-28T09:10:48.712Z,9068
2017-09-28T09:11:50.604Z,9156
2017-09-28T09:12:52.504Z,9256
2017-09-28T09:13:54.397Z,9264
2017-09-28T09:15:08.561Z,9260
2017-09-28T09:16:10.451Z,9288
2017-09-28T09:17:12.345Z,9380
2017-09-28T09:18:14.236Z,9312
2017-09-28T09:19:16.061Z,9212
2017-09-28T09:20:17.891Z,9212
2017-09-28T09:21:19.787Z,9304
2017-09-28T09:22:21.688Z,9408
2017-09-28T09:23:23.586Z,9624
2017-09-28T09:24:37.754Z,9896
2017-09-28T09:25:39.640Z,9972
2017-09-28T09:26:41.531Z,9896
2017-09-28T09:27:43.423Z,9788
2017-09-28T09:28:45.262Z,9736
2017-09-28T09:29:47.091Z,9740
2017-09-28T09:30:48.984Z,9872
2017-09-28T09:31:50.885Z,10064
2017-09-28T09:32:52.793Z,10408
2017-09-28T09:34:07.003Z,10660
2017-09-28T09:35:08.898Z,10708
2017-09-28T09:36:10.796Z,10772
2017-09-28T09:37:12.688Z,10832
2017-09-28T09:38:14.516Z,10964
2017-09-28T09:39:16.342Z,10964
2017-09-28T09:40:18.236Z,11048
2017-09-28T09:41:20.138Z,11008
2017-09-28T09:42:22.032Z,10944
2017-09-28T09:43:36.201Z,11060
2017-09-28T09:44:38.092Z,10804
2017-09-28T09:45:39.984Z,10692
2017-09-28T09:46:41.878Z,10852
2017-09-28T09:47:43.719Z,10716
2017-09-28T09:48:45.551Z,10720
2017-09-28T09:49:47.450Z,10752
2017-09-28T09:50:49.341Z,10804
2017-09-28T09:51:51.234Z,10744
2017-09-28T09:53:05.455Z,10412
2017-09-28T09:54:07.347Z,10080
2017-09-28T09:55:09.236Z,9692
2017-09-28T09:56:11.143Z,9028
2017-09-28T09:57:12.969Z,8424
2017-09-28T09:58:14.799Z,8120
2017-09-28T09:59:16.694Z,7844
2017-09-28T10:00:18.586Z,7712
2017-09-28T10:01:20.481Z,7624
2017-09-28T10:02:34.668Z,7292
2017-09-28T10:03:36.561Z,7144
2017-09-28T10:04:38.452Z,6972
2017-09-28T10:05:40.341Z,6988
2017-09-28T10:06:42.169Z,6888
2017-09-28T10:07:43.996Z,6632
2017-09-28T10:08:45.890Z,6264
2017-09-28T10:09:47.780Z,5996
2017-09-28T10:10:49.685Z,5852
2017-09-28T10:12:03.850Z,5584
2017-09-28T10:13:05.740Z,5380
2017-09-28T10:14:07.633Z,5288
2017-09-28T10:15:09.524Z,5336
2017-09-28T10:16:11.350Z,5460
2017-09-28T10:17:13.187Z,5792
2017-09-28T10:18:15.083Z,6116
2017-09-28T10:19:16.971Z,6388
2017-09-28T10:20:18.866Z,6472
2017-09-28T10:21:33.030Z,6320
2017-09-28T10:22:34.920Z,6028
2017-09-28T10:23:36.813Z,5560
2017-09-28T10:24:38.702Z,5244
2017-09-28T10:25:40.540Z,4912
2017-09-28T10:26:42.372Z,4708
2017-09-28T10:27:44.260Z,4796
2017-09-28T10:28:46.149Z,4844
2017-09-28T10:29:48.044Z,4872
2017-09-28T10:31:02.247Z,4936
2017-09-28T10:32:04.162Z,4988
2017-09-28T10:33:06.080Z,4980
2017-09-28T10:34:07.981Z,4840
2017-09-28T10:35:09.808Z,4780
2017-09-28T10:36:11.633Z,4728
2017-09-28T10:37:13.527Z,4692
2017-09-28T10:38:15.426Z,4720
2017-09-28T10:39:17.318Z,4904
2017-09-28T10:40:31.479Z,5028
2017-09-28T10:41:33.369Z,5008
2017-09-28T10:42:35.270Z,4900
2017-09-28T10:43:37.162Z,4864
2017-09-28T10:44:39.000Z,5292
2017-09-28T10:45:40.826Z,5332
2017-09-28T10:46:42.720Z,5292
2017-09-28T10:47:44.623Z,4968
2017-09-28T10:48:46.526Z,4924
2017-09-28T10:50:00.689Z,4928
2017-09-28T10:51:02.596Z,4824
2017-09-28T10:52:04.487Z,4716
2017-09-28T10:53:06.387Z,4564
2017-09-28T10:54:08.223Z,4296
2017-09-28T10:55:10.061Z,4392
2017-09-28T10:56:11.955Z,4752
2017-09-28T10:57:13.845Z,5176
2017-09-28T10:58:15.746Z,4840
2017-09-28T10:59:29.907Z,5596
2017-09-28T11:00:31.797Z,5920
2017-09-28T11:01:33.689Z,5104
2017-09-28T11:02:35.582Z,4908
2017-09-28T11:03:37.407Z,4820
2017-09-28T11:04:39.248Z,5724
2017-09-28T11:05:41.140Z,5360
2017-09-28T11:06:43.026Z,5868
2017-09-28T11:07:44.921Z,6336
2017-09-28T11:08:59.083Z,6452
2017-09-28T11:10:00.974Z,6104
2017-09-28T11:11:02.875Z,5680
2017-09-28T11:12:04.777Z,5600
2017-09-28T11:13:06.604Z,5880
2017-09-28T11:14:08.430Z,6156
2017-09-28T11:15:10.327Z,6860
2017-09-28T11:16:12.223Z,8208
2017-09-28T11:17:14.113Z,7100
2017-09-28T11:18:28.375Z,6384
2017-09-28T11:19:30.275Z,7220
2017-09-28T11:20:32.192Z,6952
2017-09-28T11:21:34.067Z,6712
2017-09-28T11:22:35.895Z,6868
2017-09-28T11:23:37.723Z,6712
2017-09-28T11:24:39.617Z,6752
2017-09-28T11:25:41.524Z,6596
2017-09-28T11:26:43.443Z,6620
2017-09-28T11:27:57.607Z,6436
2017-09-28T11:28:59.528Z,6300
2017-09-28T11:30:01.418Z,6660
2017-09-28T11:31:03.306Z,6712
2017-09-28T11:32:05.143Z,6656
2017-09-28T11:33:06.970Z,6636
2017-09-28T11:34:08.862Z,6708
2017-09-28T11:35:10.754Z,7644
2017-09-28T11:36:12.647Z,7468
2017-09-28T11:37:26.813Z,7656
2017-09-28T11:38:28.703Z,7612
2017-09-28T11:39:30.595Z,7964
2017-09-28T11:40:32.484Z,8028
2017-09-28T11:41:34.323Z,8032
2017-09-28T11:42:36.152Z,8288
2017-09-28T11:43:38.046Z,8568
2017-09-28T11:44:39.936Z,8492
2017-09-28T11:45:41.829Z,8828
2017-09-28T11:46:55.994Z,8972
2017-09-28T11:47:57.883Z,8940
2017-09-28T11:48:59.789Z,8972
2017-09-28T11:50:01.731Z,9016
2017-09-28T11:51:03.558Z,9384
2017-09-28T11:52:05.401Z,9408
2017-09-28T11:53:07.300Z,9332
2017-09-28T11:54:09.199Z,9560
2017-09-28T11:55:11.113Z,9764
2017-09-28T11:56:25.278Z,9940
2017-09-28T11:57:27.168Z,10060
2017-09-28T11:58:29.061Z,10240
2017-09-28T11:59:30.953Z,10372
2017-09-28T12:00:32.781Z,10400
2017-09-28T12:01:34.610Z,10540
2017-09-28T12:02:36.506Z,10748
2017-09-28T12:03:38.398Z,10868
2017-09-28T12:04:40.287Z,11088
2017-09-28T12:05:54.455Z,11248
2017-09-28T12:06:56.347Z,11312
2017-09-28T12:07:58.241Z,11364
2017-09-28T12:09:00.199Z,11328
2017-09-28T12:10:01.994Z,11432
2017-09-28T12:11:03.821Z,11524
2017-09-28T12:12:05.713Z,11360
2017-09-28T12:13:07.617Z,11240
2017-09-28T12:14:09.512Z,11460
2017-09-28T12:15:23.729Z,11544
2017-09-28T12:16:25.626Z,11600
2017-09-28T12:17:27.555Z,11552
2017-09-28T12:18:29.448Z,11576
2017-09-28T12:19:31.287Z,11608
2017-09-28T12:20:33.115Z,11708
2017-09-28T12:21:34.971Z,11796
2017-09-28T12:22:36.875Z,11844
2017-09-28T12:23:38.766Z,11992
2017-09-28T12:24:52.949Z,12056
2017-09-28T12:25:54.842Z,12172
2017-09-28T12:26:56.738Z,12164
2017-09-28T12:27:58.969Z,12176
2017-09-28T12:29:00.845Z,11804
2017-09-28T12:30:02.675Z,12292
2017-09-28T12:31:04.570Z,12112
2017-09-28T12:32:06.464Z,12368
2017-09-28T12:33:08.358Z,12144
2017-09-28T12:34:22.737Z,11780
2017-09-28T12:35:24.634Z,11492
2017-09-28T12:36:26.549Z,11324
2017-09-28T12:37:28.438Z,11440
2017-09-28T12:38:30.283Z,11188
2017-09-28T12:39:32.210Z,11084
2017-09-28T12:40:34.112Z,10844
2017-09-28T12:41:36.012Z,10588
2017-09-28T12:42:37.950Z,10152
2017-09-28T12:43:52.135Z,9508
2017-09-28T12:44:54.013Z,9308
2017-09-28T12:45:55.908Z,9080
2017-09-28T12:46:57.821Z,8752
2017-09-28T12:47:59.662Z,8492
2017-09-28T12:49:01.493Z,9100
2017-09-28T12:50:03.393Z,9040
2017-09-28T12:51:05.281Z,9336
2017-09-28T12:52:07.173Z,9712
2017-09-28T12:53:21.377Z,9472
2017-09-28T12:54:23.270Z,8912
2017-09-28T12:55:25.162Z,8236
2017-09-28T12:56:27.139Z,8500
2017-09-28T12:57:28.979Z,9308
2017-09-28T12:58:30.805Z,10052
2017-09-28T12:59:32.739Z,10424
2017-09-28T13:00:34.632Z,10528
2017-09-28T13:01:36.610Z,10500
2017-09-28T13:02:50.762Z,10276
2017-09-28T13:03:52.655Z,10348
2017-09-28T13:04:54.955Z,10420
2017-09-28T13:05:57.345Z,10476
2017-09-28T13:06:59.285Z,10428
2017-09-28T13:08:01.245Z,10340
2017-09-28T13:09:03.298Z,10152
2017-09-28T13:10:05.264Z,10252
2017-09-28T13:11:07.161Z,10332
2017-09-28T13:12:21.333Z,10176
2017-09-28T13:13:23.255Z,10028
2017-09-28T13:14:25.151Z,9956
2017-09-28T13:15:27.072Z,9796
2017-09-28T13:16:28.938Z,9740
2017-09-28T13:17:31.115Z,9584
2017-09-28T13:18:33.067Z,9344
2017-09-28T13:19:35.009Z,9180
2017-09-28T13:20:37.012Z,8868
2017-09-28T13:21:51.589Z,8616
2017-09-28T13:22:53.556Z,8464
2017-09-28T13:23:55.460Z,8364
2017-09-28T13:24:57.381Z,8324
2017-09-28T13:25:59.243Z,8288
2017-09-28T13:27:01.072Z,7800
2017-09-28T13:28:02.968Z,7832
2017-09-28T13:29:04.863Z,7828
2017-09-28T13:30:06.761Z,7816
2017-09-28T13:31:20.932Z,7728
2017-09-28T13:32:23.167Z,7808
2017-09-28T13:33:25.208Z,7872
2017-09-28T13:34:27.458Z,7948
2017-09-28T13:35:29.473Z,7980
2017-09-28T13:36:31.311Z,8000
2017-09-28T13:37:33.201Z,7896
2017-09-28T13:38:35.358Z,7820
2017-09-28T13:39:37.217Z,7720
2017-09-28T13:40:51.395Z,7756
2017-09-28T13:41:53.287Z,7896
2017-09-28T13:42:55.491Z,7712
2017-09-28T13:43:57.411Z,7996
2017-09-28T13:44:59.238Z,8064
2017-09-28T13:46:01.068Z,8060
2017-09-28T13:47:02.964Z,7964
2017-09-28T13:48:04.865Z,8132
2017-09-28T13:49:06.796Z,8084
2017-09-28T13:50:20.952Z,8072
2017-09-28T13:51:22.843Z,8084
2017-09-28T13:52:24.738Z,8080
2017-09-28T13:53:26.664Z,8032
2017-09-28T13:54:28.457Z,8000
2017-09-28T13:55:30.299Z,7984
2017-09-28T13:56:32.210Z,7980
2017-09-28T13:57:34.113Z,7940
2017-09-28T13:58:36.009Z,7900
2017-09-28T13:59:50.196Z,7896
2017-09-28T14:00:52.089Z,7928
2017-09-28T14:01:53.983Z,7956
2017-09-28T14:02:55.944Z,7912
2017-09-28T14:03:57.759Z,7816
2017-09-28T14:04:59.588Z,7700
2017-09-28T14:06:01.481Z,7548
2017-09-28T14:07:03.376Z,7572
2017-09-28T14:08:05.366Z,7496
2017-09-28T14:09:19.569Z,7276
2017-09-28T14:10:21.460Z,7428
2017-09-28T14:11:23.405Z,7444
2017-09-28T14:12:25.333Z,7416
2017-09-28T14:13:27.161Z,7336
2017-09-28T14:14:28.992Z,7276
2017-09-28T14:15:30.989Z,7264
2017-09-28T14:16:32.930Z,7296
2017-09-28T14:17:34.865Z,7308
2017-09-28T14:18:49.030Z,7260
2017-09-28T14:19:50.922Z,7216
2017-09-28T14:20:52.909Z,7120
2017-09-28T14:21:54.864Z,7128
2017-09-28T14:22:56.693Z,7164
2017-09-28T14:23:58.580Z,7048
2017-09-28T14:25:01.259Z,7032
2017-09-28T14:26:06.113Z,7004
2017-09-28T14:27:21.740Z,6916
2017-09-28T14:28:23.652Z,6896